• Join FlightAware (Why Join?)
  • Login
  • US Flag 
10:58PM EDT


 

Airport Tracker/Info


-or-


 

Live Flight TrackerFlight Track Log ✈ N633WC ✈ 22-Aug-2013 ✈ KOLU - KOMA

Flight Track Log - Related Links

Times and Time Zones

All times are in EDT time to prevent confusion due to time zone crossing. See the N633WC flight status page for this flight to view local times or setup timezone preferences in your user account.

Time Position Orientation Groundspeed Altitude Reporting Facility
EDT Latitude Longitude Course Direction KTS MPH feet Rate Location/Type
08:50PM 41.4567 -97.1614 87° East 153 176 7,000  Level Minneapolis Center
08:51PM 41.4469 -97.0867 100° East 195 224 7,000  Level Minneapolis Center
08:52PM 41.4358 -97.0078 101° East 213 245 7,000  Level Minneapolis Center
08:53PM 41.4222 -96.9111 101° East 220 253 7,000  Level Minneapolis Center
08:54PM 41.4019 -96.8406 111° Southeast 220 253 7,000  Level Minneapolis Center
08:55PM 41.3931 -96.7608 98° East 220 253 7,000  Level Minneapolis Center
08:57PM 41.3956 -96.6708 88° East 218 251 7,000 -240 Level Minneapolis Center
08:57PM 41.3769 -96.5931 108° East 221 254 6,600 -540 Descending Minneapolis Center
08:58PM 41.3675 -96.5081 98° East 232 267 6,000 -720 Descending Minneapolis Center
08:59PM 41.3581 -96.4231 98° East 233 268 5,200 -900 Descending Minneapolis Center
09:00PM 41.3486 -96.3353 98° East 234 269 4,200 -600 Descending Minneapolis Center
09:01PM 41.3414 -96.2528 97° East 226 260 4,000 -180 Descending Minneapolis Center
09:02PM 41.3433 -96.2203 85° East 230 265 4,000  Level Minneapolis Center
09:02PM 41.3367 -96.1783 102° East 209 241 4,000  Level Minneapolis Center
09:03PM 41.3369 -96.1286 90° East 218 251 4,000 -240 Level Minneapolis Center
09:03PM 41.3314 -96.0958 103° East 207 238 3,800 -600 Descending Minneapolis Center
09:04PM 41.3331 -96.0528 87° East 213 245 3,400 -840 Descending Minneapolis Center
09:05PM 41.3411 -95.9822 81° East 207 238 2,500 -780 Descending Minneapolis Center
09:06PM 41.3381 -95.9244 94° East 176 203 1,800 -720 Descending Minneapolis Center
09:07PM 41.3064 -95.8933 144° Southeast 151 174 1,100 -720 Descending Minneapolis Center
09:09PM 41.3000 -95.8833 90° East  Level FlightAware Approximate